createdAt,value
2022-11-03T00:01:46.692Z,41.03
2022-11-03T00:04:15.220Z,40.81
2022-11-03T00:06:42.374Z,40.82
2022-11-03T00:09:10.430Z,40.98
2022-11-03T00:11:37.857Z,40.92
2022-11-03T00:14:04.700Z,40.85
2022-11-03T00:16:31.165Z,40.69
2022-11-03T00:18:57.643Z,40.85
2022-11-03T00:21:24.092Z,40.92
2022-11-03T00:23:51.085Z,40.64
2022-11-03T00:26:20.742Z,41.04
2022-11-03T00:28:48.905Z,41.05
2022-11-03T00:31:17.139Z,40.81
2022-11-03T00:33:43.904Z,40.92
2022-11-03T00:36:12.268Z,41.13
2022-11-03T00:38:38.750Z,41.00
2022-11-03T00:41:05.805Z,41.36
2022-11-03T00:43:33.397Z,41.07
2022-11-03T00:45:59.999Z,40.79
2022-11-03T00:48:29.366Z,40.76
2022-11-03T00:51:02.485Z,41.12
2022-11-03T00:53:29.181Z,41.08
2022-11-03T00:55:55.643Z,40.89
2022-11-03T00:58:22.185Z,41.06
2022-11-03T01:00:48.704Z,40.90
2022-11-03T01:03:15.182Z,41.11
2022-11-03T01:06:00.895Z,40.76
2022-11-03T01:08:33.220Z,41.49
2022-11-03T01:11:25.518Z,41.27
2022-11-03T01:13:52.032Z,40.98
2022-11-03T01:16:18.497Z,40.81
2022-11-03T01:18:44.981Z,40.82
2022-11-03T01:21:11.460Z,41.36
2022-11-03T01:23:37.989Z,40.81
2022-11-03T01:26:05.948Z,41.03
2022-11-03T01:28:36.148Z,41.02
2022-11-03T01:31:06.500Z,41.10
2022-11-03T01:33:33.355Z,41.20
2022-11-03T01:35:59.845Z,41.22
2022-11-03T01:38:26.341Z,40.93
2022-11-03T01:40:52.863Z,40.97
2022-11-03T01:43:22.922Z,41.30
2022-11-03T01:46:18.711Z,41.27
2022-11-03T01:49:09.825Z,41.08
2022-11-03T01:51:36.530Z,41.03
2022-11-03T01:54:05.757Z,41.28
2022-11-03T01:56:32.803Z,41.35
2022-11-03T01:58:59.270Z,41.08
2022-11-03T02:01:25.840Z,41.30
2022-11-03T02:03:59.597Z,41.17
2022-11-03T02:06:26.525Z,41.02
2022-11-03T02:08:56.886Z,41.33
2022-11-03T02:11:41.909Z,41.08
2022-11-03T02:14:12.867Z,41.18
2022-11-03T02:16:39.329Z,41.04
2022-11-03T02:19:05.796Z,40.83
2022-11-03T02:22:10.625Z,41.27
2022-11-03T02:24:49.900Z,41.32
2022-11-03T02:27:20.259Z,40.95
2022-11-03T02:29:46.915Z,41.49
2022-11-03T02:32:20.030Z,41.48
2022-11-03T02:34:54.739Z,41.38
2022-11-03T02:37:23.017Z,41.32
2022-11-03T02:40:05.331Z,41.22
2022-11-03T02:42:31.810Z,41.59
2022-11-03T02:44:59.950Z,41.52
2022-11-03T02:47:26.425Z,41.72
2022-11-03T02:49:53.711Z,41.36
2022-11-03T02:52:43.799Z,41.38
2022-11-03T02:55:48.526Z,41.59
2022-11-03T02:58:38.851Z,41.54
2022-11-03T03:01:49.350Z,41.27
2022-11-03T03:04:23.753Z,41.26
2022-11-03T03:07:23.683Z,41.43
2022-11-03T03:09:54.419Z,41.15
2022-11-03T03:12:20.879Z,41.33
2022-11-03T03:14:47.412Z,41.12
2022-11-03T03:17:35.645Z,40.96
2022-11-03T03:20:05.516Z,41.24
2022-11-03T03:23:06.244Z,41.37
2022-11-03T03:25:43.654Z,41.08
2022-11-03T03:28:11.988Z,41.01
2022-11-03T03:30:38.466Z,41.04
2022-11-03T03:33:05.748Z,41.29
2022-11-03T03:35:32.862Z,41.26
2022-11-03T03:38:02.241Z,41.20
2022-11-03T03:40:36.446Z,41.04
2022-11-03T03:43:03.602Z,40.77
2022-11-03T03:45:30.399Z,41.00
2022-11-03T03:47:57.872Z,41.12
2022-11-03T03:50:25.399Z,41.06
2022-11-03T03:52:55.610Z,41.21
2022-11-03T03:55:22.095Z,41.18
2022-11-03T03:57:48.632Z,41.26
2022-11-03T04:00:16.032Z,41.30
2022-11-03T04:02:42.639Z,41.43
2022-11-03T04:05:09.116Z,41.11
2022-11-03T04:07:47.327Z,41.13
2022-11-03T04:10:18.046Z,41.41
2022-11-03T04:13:03.197Z,41.28
2022-11-03T04:16:02.662Z,41.24
2022-11-03T04:18:47.553Z,41.36
2022-11-03T04:21:32.486Z,41.31
2022-11-03T04:24:00.354Z,41.50
2022-11-03T04:26:26.975Z,41.24
2022-11-03T04:28:53.576Z,41.56
2022-11-03T04:31:20.232Z,41.49
2022-11-03T04:33:47.871Z,41.22
2022-11-03T04:36:19.423Z,41.40
2022-11-03T04:38:46.007Z,41.30
2022-11-03T04:41:17.467Z,41.41
2022-11-03T04:43:44.613Z,41.54
2022-11-03T04:46:16.559Z,41.54
2022-11-03T04:48:43.465Z,41.54
2022-11-03T04:51:20.702Z,41.68
2022-11-03T04:53:53.085Z,41.65
2022-11-03T04:56:22.185Z,41.37
2022-11-03T04:58:48.692Z,41.60
2022-11-03T05:01:23.427Z,41.76
2022-11-03T05:03:52.162Z,41.68
2022-11-03T05:06:21.266Z,41.59
2022-11-03T05:08:51.140Z,41.48
2022-11-03T05:11:21.876Z,41.61
2022-11-03T05:13:48.490Z,41.60
2022-11-03T05:16:14.959Z,41.66
2022-11-03T05:18:43.525Z,41.57
2022-11-03T05:21:11.390Z,41.62
2022-11-03T05:23:42.744Z,41.83
2022-11-03T05:26:20.601Z,41.80
2022-11-03T05:28:59.907Z,41.70
2022-11-03T05:31:27.976Z,41.82
2022-11-03T05:33:57.657Z,41.82
2022-11-03T05:36:25.350Z,41.75
2022-11-03T05:38:51.985Z,41.54
2022-11-03T05:41:21.941Z,41.62
2022-11-03T05:43:58.184Z,41.84
2022-11-03T05:46:27.263Z,41.57
2022-11-03T05:48:53.712Z,41.69
2022-11-03T05:51:25.060Z,41.78
2022-11-03T05:53:56.034Z,41.57
2022-11-03T05:56:23.846Z,41.19
2022-11-03T05:58:51.428Z,41.26
2022-11-03T06:01:34.046Z,41.54
2022-11-03T06:04:01.626Z,41.56
2022-11-03T06:06:35.320Z,41.60
2022-11-03T06:09:19.697Z,41.84
2022-11-03T06:11:46.344Z,41.73
2022-11-03T06:14:36.197Z,41.57
2022-11-03T06:17:06.399Z,41.75
2022-11-03T06:19:44.930Z,41.59
2022-11-03T06:22:18.985Z,41.88
2022-11-03T06:24:45.839Z,41.59
2022-11-03T06:27:16.694Z,41.79
2022-11-03T06:29:43.689Z,41.69
2022-11-03T06:32:10.244Z,42.08
2022-11-03T06:34:46.283Z,42.02
2022-11-03T06:37:24.965Z,41.87
2022-11-03T06:39:51.819Z,41.82
2022-11-03T06:42:20.559Z,42.03
2022-11-03T06:44:48.673Z,42.03
2022-11-03T06:47:23.244Z,41.86
2022-11-03T06:49:59.629Z,42.06
2022-11-03T06:52:33.998Z,41.93
2022-11-03T06:55:16.679Z,42.07
2022-11-03T06:57:45.859Z,42.28
2022-11-03T07:00:41.154Z,42.38
2022-11-03T07:03:24.957Z,42.59
2022-11-03T07:05:51.416Z,42.73
2022-11-03T07:08:29.156Z,42.74
2022-11-03T07:11:01.233Z,42.79
2022-11-03T07:13:27.741Z,42.83
2022-11-03T07:15:54.201Z,42.88
2022-11-03T07:18:20.756Z,42.91
2022-11-03T07:20:49.691Z,42.85
2022-11-03T07:23:19.582Z,42.92
2022-11-03T07:25:49.452Z,42.87
2022-11-03T07:28:15.960Z,43.08
2022-11-03T07:30:42.495Z,42.83
2022-11-03T07:33:15.195Z,42.71
2022-11-03T07:36:08.940Z,42.46
2022-11-03T07:38:29.514Z,42.35
2022-11-03T07:40:57.298Z,42.18
2022-11-03T07:43:31.767Z,42.73
2022-11-03T07:45:59.765Z,42.57
2022-11-03T07:48:42.107Z,42.51
2022-11-03T07:51:22.209Z,42.72
2022-11-03T07:53:50.540Z,42.75
2022-11-03T07:56:27.169Z,43.15
2022-11-03T07:59:01.531Z,43.18
2022-11-03T08:01:30.108Z,43.07
2022-11-03T08:03:59.003Z,42.84
2022-11-03T08:06:25.483Z,43.03
2022-11-03T08:08:52.151Z,42.81
2022-11-03T08:11:19.544Z,42.67
2022-11-03T08:13:48.811Z,42.60
2022-11-03T08:16:15.274Z,42.59
2022-11-03T08:18:41.731Z,41.94
2022-11-03T08:21:08.260Z,42.01
2022-11-03T08:23:34.779Z,41.83
2022-11-03T08:26:01.253Z,41.95
2022-11-03T08:28:28.277Z,41.46
2022-11-03T08:30:54.818Z,41.83
2022-11-03T08:33:21.379Z,41.48
2022-11-03T08:35:47.918Z,41.59
2022-11-03T08:38:14.474Z,41.52
2022-11-03T08:40:40.970Z,41.45
2022-11-03T08:43:07.456Z,41.41
2022-11-03T08:45:33.935Z,41.34
2022-11-03T08:48:00.411Z,41.35
2022-11-03T08:50:26.916Z,40.60
2022-11-03T08:52:53.418Z,40.21
2022-11-03T08:55:19.943Z,40.27
2022-11-03T08:57:47.306Z,39.73
2022-11-03T09:00:14.298Z,39.53
2022-11-03T09:02:40.773Z,39.43
2022-11-03T09:05:07.821Z,42.21
2022-11-03T09:10:23.195Z,41.88
2022-11-03T09:12:51.450Z,41.37
2022-11-03T09:15:17.934Z,42.58
2022-11-03T09:17:45.683Z,41.92
2022-11-03T09:20:12.453Z,38.94
2022-11-03T09:22:39.329Z,38.99
2022-11-03T09:25:06.288Z,38.85
2022-11-03T09:27:32.738Z,38.86
2022-11-03T09:30:12.692Z,38.77
2022-11-03T09:32:40.425Z,38.77
2022-11-03T09:35:08.292Z,39.05
2022-11-03T09:37:34.849Z,40.00
2022-11-03T09:40:02.073Z,47.35
2022-11-03T09:42:28.534Z,46.83
2022-11-03T09:44:55.062Z,44.79
2022-11-03T09:47:27.929Z,43.66
2022-11-03T09:49:54.388Z,42.81
2022-11-03T09:52:22.320Z,42.68
2022-11-03T09:54:48.896Z,42.22
2022-11-03T09:57:15.609Z,41.83
2022-11-03T09:59:46.717Z,42.27
2022-11-03T10:02:25.328Z,42.29
2022-11-03T10:04:52.702Z,42.44
2022-11-03T10:07:19.279Z,42.01
2022-11-03T10:09:47.724Z,41.70
2022-11-03T10:12:14.232Z,42.05
2022-11-03T10:14:41.587Z,42.16
2022-11-03T10:17:09.487Z,42.14
2022-11-03T10:19:38.704Z,41.79
2022-11-03T10:22:05.159Z,41.88
2022-11-03T10:24:31.614Z,41.75
2022-11-03T10:26:58.314Z,41.84
2022-11-03T10:29:26.007Z,41.67
2022-11-03T10:31:57.037Z,41.78
2022-11-03T10:34:24.417Z,41.66
2022-11-03T10:36:51.128Z,41.50
2022-11-03T10:39:25.954Z,41.42
2022-11-03T10:41:57.672Z,41.42
2022-11-03T10:44:26.277Z,41.48
2022-11-03T10:47:00.458Z,41.42
2022-11-03T10:49:31.046Z,41.39
2022-11-03T10:52:15.877Z,41.39
2022-11-03T10:54:42.613Z,41.20
2022-11-03T10:57:09.077Z,41.29
2022-11-03T10:59:37.385Z,41.37
2022-11-03T11:02:04.281Z,41.33
2022-11-03T11:04:32.007Z,41.36
2022-11-03T11:06:58.852Z,41.31
2022-11-03T11:09:26.208Z,41.27
2022-11-03T11:12:25.233Z,41.40
2022-11-03T11:15:02.659Z,41.34
2022-11-03T11:17:47.735Z,41.20
2022-11-03T11:20:23.738Z,41.28
2022-11-03T11:22:50.484Z,41.41
2022-11-03T11:25:20.166Z,41.27
2022-11-03T11:27:47.510Z,41.32
2022-11-03T11:30:19.980Z,41.33
2022-11-03T11:32:46.353Z,41.23
2022-11-03T11:35:15.770Z,41.22
2022-11-03T11:37:42.385Z,41.26
2022-11-03T11:40:24.668Z,41.31
2022-11-03T11:43:19.755Z,41.25
2022-11-03T11:46:23.578Z,41.41
2022-11-03T11:49:10.189Z,41.53
2022-11-03T11:51:37.742Z,41.54
2022-11-03T11:54:17.579Z,41.44
2022-11-03T11:56:45.512Z,41.44
2022-11-03T11:59:24.810Z,41.51
2022-11-03T12:01:54.032Z,41.44
2022-11-03T12:04:29.024Z,41.85
2022-11-03T12:06:56.436Z,41.61
2022-11-03T12:09:27.683Z,41.60
2022-11-03T12:11:56.396Z,41.55
2022-11-03T12:14:29.305Z,41.65
2022-11-03T12:16:56.420Z,41.69
2022-11-03T12:19:42.566Z,41.80
2022-11-03T12:22:10.407Z,41.86
2022-11-03T12:24:39.115Z,42.26
2022-11-03T12:27:20.441Z,41.91
2022-11-03T12:29:46.921Z,41.85
2022-11-03T12:32:25.984Z,42.04
2022-11-03T12:34:59.905Z,41.85
2022-11-03T12:37:26.385Z,42.01
2022-11-03T12:39:52.842Z,42.18
2022-11-03T12:42:20.077Z,42.23
2022-11-03T12:44:46.721Z,42.32
2022-11-03T12:47:13.319Z,42.41
2022-11-03T12:49:39.804Z,42.19
2022-11-03T12:52:08.442Z,42.28
2022-11-03T12:54:35.267Z,42.15
2022-11-03T12:57:01.794Z,42.43
2022-11-03T12:59:28.396Z,42.39
2022-11-03T13:01:55.354Z,42.41
2022-11-03T13:04:21.899Z,42.51
2022-11-03T13:06:48.481Z,42.17
2022-11-03T13:09:14.977Z,42.24
2022-11-03T13:12:00.083Z,42.31
2022-11-03T13:14:26.714Z,42.26
2022-11-03T13:16:53.253Z,42.26
2022-11-03T13:19:19.831Z,42.29
2022-11-03T13:21:46.313Z,42.32
2022-11-03T13:24:12.769Z,42.35
2022-11-03T13:26:39.258Z,42.51
2022-11-03T13:29:05.716Z,42.56
2022-11-03T13:31:32.441Z,42.52
2022-11-03T13:33:58.906Z,42.53
2022-11-03T13:36:25.515Z,42.57
2022-11-03T13:38:52.442Z,42.59
2022-11-03T13:41:18.926Z,42.59
2022-11-03T13:43:45.413Z,42.66
2022-11-03T13:46:12.934Z,42.63
2022-11-03T13:51:26.229Z,42.33
2022-11-03T13:59:26.234Z,42.44
2022-11-03T14:07:11.402Z,42.75
2022-11-03T14:09:37.902Z,42.76
2022-11-03T14:12:23.354Z,42.83
2022-11-03T14:14:50.182Z,42.94
2022-11-03T14:17:16.781Z,42.94
2022-11-03T14:19:48.680Z,42.72
2022-11-03T14:22:19.527Z,42.86
2022-11-03T14:24:46.006Z,42.77
2022-11-03T14:27:15.637Z,42.91
2022-11-03T14:29:43.710Z,42.93
2022-11-03T14:32:13.056Z,42.76
2022-11-03T14:34:41.116Z,42.82
2022-11-03T14:37:11.058Z,42.90
2022-11-03T14:39:37.662Z,42.79
2022-11-03T14:42:05.326Z,42.84
2022-11-03T14:44:42.284Z,42.88
2022-11-03T14:47:12.030Z,42.87
2022-11-03T14:49:40.597Z,42.77
2022-11-03T14:52:07.516Z,42.95
2022-11-03T14:54:34.465Z,42.97
2022-11-03T14:57:00.968Z,42.91
2022-11-03T14:59:27.552Z,42.86
2022-11-03T15:01:54.235Z,42.84
2022-11-03T15:04:21.426Z,42.78
2022-11-03T15:06:48.272Z,42.84
2022-11-03T15:09:15.070Z,42.81
2022-11-03T15:11:42.525Z,42.95
2022-11-03T15:14:09.013Z,42.76
2022-11-03T15:16:36.223Z,42.83
2022-11-03T15:19:03.705Z,42.83
2022-11-03T15:21:30.613Z,42.69
2022-11-03T15:26:43.561Z,42.79
2022-11-03T15:29:10.024Z,42.90
2022-11-03T15:31:36.499Z,42.83
2022-11-03T15:34:06.044Z,42.83
2022-11-03T15:36:35.302Z,42.68
2022-11-03T15:39:01.922Z,42.78
2022-11-03T15:41:28.397Z,42.80
2022-11-03T15:43:54.852Z,42.82
2022-11-03T15:46:21.339Z,42.98
2022-11-03T15:48:49.153Z,42.82
2022-11-03T15:51:15.725Z,43.02
2022-11-03T15:53:43.636Z,42.88
2022-11-03T15:56:10.141Z,42.91
2022-11-03T15:58:38.126Z,42.91
2022-11-03T16:01:05.149Z,42.99
2022-11-03T16:03:34.780Z,42.95
2022-11-03T16:06:01.258Z,42.92
2022-11-03T16:08:28.889Z,43.07
2022-11-03T16:10:58.542Z,43.14
2022-11-03T16:13:25.423Z,43.02
2022-11-03T16:15:54.416Z,43.02
2022-11-03T16:18:28.270Z,43.03
2022-11-03T16:20:56.087Z,42.95
2022-11-03T16:23:22.546Z,43.02
2022-11-03T16:25:49.001Z,43.00
2022-11-03T16:28:16.137Z,42.93
2022-11-03T16:30:42.974Z,43.09
2022-11-03T16:33:10.113Z,43.02
2022-11-03T16:35:37.639Z,42.87
2022-11-03T16:38:04.148Z,43.03
2022-11-03T16:40:30.700Z,42.96
2022-11-03T16:42:57.170Z,43.08
2022-11-03T16:45:27.566Z,42.89
2022-11-03T16:47:54.865Z,43.19
2022-11-03T16:50:24.181Z,43.11
2022-11-03T16:52:51.854Z,42.92
2022-11-03T16:55:19.086Z,42.25
2022-11-03T16:57:47.049Z,42.33
2022-11-03T17:00:17.669Z,42.21
2022-11-03T17:02:44.367Z,42.31
2022-11-03T17:05:11.060Z,42.29
2022-11-03T17:07:38.898Z,42.41
2022-11-03T17:10:06.812Z,42.27
2022-11-03T17:12:33.987Z,42.18
2022-11-03T17:15:00.465Z,42.33
2022-11-03T17:17:28.622Z,42.25
2022-11-03T17:19:56.468Z,42.12
2022-11-03T17:22:24.308Z,42.14
2022-11-03T17:24:51.037Z,42.05
2022-11-03T17:27:50.879Z,42.35
2022-11-03T17:30:25.005Z,42.09
2022-11-03T17:32:53.178Z,42.01
2022-11-03T17:35:22.284Z,42.07
2022-11-03T17:37:50.088Z,42.16
2022-11-03T17:40:22.833Z,42.11
2022-11-03T17:42:52.903Z,42.34
2022-11-03T17:45:21.016Z,42.16
2022-11-03T17:47:49.574Z,42.46
2022-11-03T17:50:19.887Z,42.57
2022-11-03T17:52:46.925Z,42.67
2022-11-03T17:55:28.299Z,42.66
2022-11-03T17:57:55.207Z,42.74
2022-11-03T18:00:29.653Z,42.46
2022-11-03T18:02:57.945Z,42.82
2022-11-03T18:05:30.411Z,43.02
2022-11-03T18:08:01.151Z,43.33
2022-11-03T18:10:31.022Z,43.55
2022-11-03T18:13:17.425Z,43.76
2022-11-03T18:15:45.319Z,43.64
2022-11-03T18:18:14.469Z,43.31
2022-11-03T18:20:50.335Z,43.30
2022-11-03T18:23:25.368Z,43.22
2022-11-03T18:25:54.601Z,42.93
2022-11-03T18:28:21.382Z,42.69
2022-11-03T18:30:48.807Z,42.39
2022-11-03T18:33:33.617Z,42.38
2022-11-03T18:36:02.033Z,42.61
2022-11-03T18:38:28.522Z,42.47
2022-11-03T18:40:56.075Z,42.32
2022-11-03T18:43:23.856Z,42.51
2022-11-03T18:45:50.691Z,42.58
2022-11-03T18:48:21.511Z,42.61
2022-11-03T18:50:55.285Z,42.46
2022-11-03T18:53:24.489Z,42.45
2022-11-03T18:55:51.869Z,42.30
2022-11-03T18:58:20.375Z,42.36
2022-11-03T19:00:46.965Z,42.30
2022-11-03T19:03:15.791Z,42.55
2022-11-03T19:05:43.495Z,42.73
2022-11-03T19:08:17.972Z,42.75
2022-11-03T19:10:46.229Z,42.90
2022-11-03T19:13:36.931Z,42.79
2022-11-03T19:16:08.780Z,42.88
2022-11-03T19:18:37.170Z,42.86
2022-11-03T19:21:13.431Z,43.06
2022-11-03T19:23:40.207Z,43.08
2022-11-03T19:26:21.470Z,43.33
2022-11-03T19:28:50.474Z,43.36
2022-11-03T19:31:39.967Z,43.02
2022-11-03T19:34:08.634Z,43.28
2022-11-03T19:36:36.158Z,43.25
2022-11-03T19:39:02.942Z,42.99
2022-11-03T19:41:49.326Z,43.03
2022-11-03T19:44:16.143Z,43.22
2022-11-03T19:46:42.630Z,43.03
2022-11-03T19:49:13.298Z,43.28
2022-11-03T19:51:40.392Z,43.35
2022-11-03T19:54:10.475Z,43.07
2022-11-03T19:56:39.043Z,43.02
2022-11-03T19:59:09.385Z,43.17
2022-11-03T20:01:38.928Z,43.06
2022-11-03T20:04:08.338Z,43.12
2022-11-03T20:06:41.000Z,43.13
2022-11-03T20:09:09.385Z,42.97
2022-11-03T20:11:38.106Z,42.98
2022-11-03T20:14:04.593Z,42.99
2022-11-03T20:16:31.228Z,42.95
2022-11-03T20:18:58.098Z,42.94
2022-11-03T20:21:34.277Z,43.00
2022-11-03T20:24:04.721Z,42.95
2022-11-03T20:26:31.751Z,42.92
2022-11-03T20:28:59.571Z,42.81
2022-11-03T20:31:26.053Z,42.82
2022-11-03T20:33:53.695Z,43.11
2022-11-03T20:36:20.541Z,43.17
2022-11-03T20:39:01.472Z,42.99
2022-11-03T20:41:28.706Z,43.50
2022-11-03T20:43:56.757Z,43.11
2022-11-03T20:46:28.141Z,43.21
2022-11-03T20:48:57.866Z,43.38
2022-11-03T20:51:26.271Z,43.25
2022-11-03T20:53:52.999Z,43.48
2022-11-03T20:56:22.211Z,43.32
2022-11-03T20:58:48.755Z,43.50
2022-11-03T21:01:18.237Z,43.42
2022-11-03T21:03:58.810Z,43.26
2022-11-03T21:06:26.713Z,43.38
2022-11-03T21:08:55.153Z,43.32
2022-11-03T21:11:24.924Z,43.36
2022-11-03T21:13:54.130Z,43.34
2022-11-03T21:16:39.180Z,43.73
2022-11-03T21:19:43.322Z,43.41
2022-11-03T21:22:46.210Z,43.70
2022-11-03T21:25:04.788Z,43.69
2022-11-03T21:27:31.531Z,43.99
2022-11-03T21:30:00.587Z,43.77
2022-11-03T21:32:28.562Z,43.96
2022-11-03T21:34:56.299Z,43.60
2022-11-03T21:37:22.776Z,43.96
2022-11-03T21:39:50.055Z,43.96
2022-11-03T21:42:35.075Z,43.96
2022-11-03T21:45:02.963Z,43.92
2022-11-03T21:47:34.212Z,44.20
2022-11-03T21:52:32.325Z,44.15
2022-11-03T21:55:02.488Z,43.75
2022-11-03T21:57:29.627Z,43.31
2022-11-03T21:59:59.395Z,42.94
2022-11-03T22:02:30.052Z,42.34
2022-11-03T22:04:56.995Z,42.09
2022-11-03T22:07:23.556Z,42.09
2022-11-03T22:09:50.022Z,41.90
2022-11-03T22:12:16.861Z,41.65
2022-11-03T22:15:01.771Z,41.69
2022-11-03T22:17:28.587Z,41.63
2022-11-03T22:20:14.375Z,41.45
2022-11-03T22:23:01.563Z,41.50
2022-11-03T22:25:48.553Z,41.32
2022-11-03T22:28:16.432Z,41.41
2022-11-03T22:31:01.624Z,41.62
2022-11-03T22:33:28.296Z,41.61
2022-11-03T22:36:18.739Z,41.86
2022-11-03T22:39:06.353Z,41.51
2022-11-03T22:41:51.415Z,41.51
2022-11-03T22:44:36.578Z,41.50
2022-11-03T22:47:06.930Z,41.81
2022-11-03T22:49:34.963Z,41.60
2022-11-03T22:52:02.301Z,41.86
2022-11-03T22:54:33.433Z,42.02
2022-11-03T22:56:59.907Z,41.73
2022-11-03T22:59:27.765Z,42.16
2022-11-03T23:01:58.346Z,42.06
2022-11-03T23:04:24.927Z,41.87
2022-11-03T23:06:51.386Z,42.18
2022-11-03T23:09:18.397Z,42.11
2022-11-03T23:11:45.199Z,42.09
2022-11-03T23:14:12.141Z,41.81
2022-11-03T23:16:40.596Z,41.71
2022-11-03T23:19:31.072Z,41.91
2022-11-03T23:22:01.674Z,42.33
2022-11-03T23:24:46.945Z,42.64
2022-11-03T23:27:13.913Z,42.82
2022-11-03T23:29:40.887Z,42.25
2022-11-03T23:32:07.752Z,42.31
2022-11-03T23:34:37.672Z,42.72
2022-11-03T23:37:05.409Z,42.61
2022-11-03T23:39:33.040Z,42.80
2022-11-03T23:41:59.524Z,42.71
2022-11-03T23:44:46.270Z,42.92
2022-11-03T23:47:41.986Z,42.85
2022-11-03T23:50:11.804Z,43.00
2022-11-03T23:52:38.268Z,42.71
2022-11-03T23:55:05.125Z,42.08
2022-11-03T23:57:50.881Z,42.44
